createdAt,value
2019-02-18T08:37:24.700Z,30.66
2019-02-18T08:39:51.053Z,29.99
2019-02-18T08:42:17.417Z,29.97
2019-02-18T08:44:43.776Z,29.66
2019-02-18T08:47:10.124Z,29.92
2019-02-18T08:49:36.493Z,30.60
2019-02-18T08:52:02.825Z,30.00
2019-02-18T08:54:29.256Z,29.42
2019-02-18T08:56:55.596Z,29.43
2019-02-18T08:59:21.995Z,28.75
2019-02-18T09:01:48.307Z,29.20
2019-02-18T09:04:14.653Z,29.47
2019-02-18T09:06:40.998Z,29.52
2019-02-18T09:09:07.345Z,29.44
2019-02-18T09:11:33.687Z,29.57
2019-02-18T09:14:00.090Z,29.09
2019-02-18T09:16:26.432Z,29.21
2019-02-18T09:18:52.768Z,28.98
2019-02-18T09:21:19.104Z,28.97
2019-02-18T09:23:45.441Z,29.07
2019-02-18T09:26:11.783Z,28.92
2019-02-18T09:28:38.152Z,28.82
2019-02-18T09:31:04.524Z,29.06
2019-02-18T09:33:30.940Z,29.02
2019-02-18T09:35:57.299Z,29.16
2019-02-18T09:38:25.345Z,28.65
2019-02-18T09:40:51.603Z,28.74
2019-02-18T09:43:16.506Z,28.87
2019-02-18T09:45:42.842Z,28.67
2019-02-18T09:48:09.232Z,28.88
2019-02-18T09:50:35.743Z,29.04
2019-02-18T09:53:02.606Z,28.89
2019-02-18T09:55:28.470Z,28.69
2019-02-18T09:57:54.814Z,28.71
2019-02-18T10:00:21.216Z,28.84
2019-02-18T10:02:47.621Z,28.87
2019-02-18T10:05:14.100Z,28.75
2019-02-18T10:07:40.488Z,28.34
2019-02-18T10:10:06.844Z,28.64
2019-02-18T10:12:33.190Z,28.83
2019-02-18T10:14:59.521Z,28.31
2019-02-18T10:17:25.855Z,28.56
2019-02-18T10:19:52.229Z,28.52
2019-02-18T10:22:18.594Z,28.77
2019-02-18T10:24:50.487Z,28.74
2019-02-18T10:27:11.312Z,28.95
2019-02-18T10:29:37.618Z,28.61
2019-02-18T10:32:03.963Z,28.88
2019-02-18T10:34:30.336Z,29.15
2019-02-18T10:36:56.687Z,29.08
2019-02-18T10:39:23.041Z,28.99
2019-02-18T10:41:49.461Z,28.98
2019-02-18T10:44:15.785Z,28.80
2019-02-18T10:46:42.118Z,28.90
2019-02-18T10:49:18.993Z,28.85
2019-02-18T10:51:34.792Z,28.68
2019-02-18T10:54:01.155Z,28.58
2019-02-18T10:56:27.543Z,28.49
2019-02-18T10:58:53.877Z,28.89
2019-02-18T11:01:20.207Z,29.25
2019-02-18T11:03:46.600Z,28.85
2019-02-18T11:06:12.926Z,29.08
2019-02-18T11:08:39.308Z,28.64
2019-02-18T11:11:05.679Z,28.79
2019-02-18T11:13:32.035Z,29.10
2019-02-18T11:15:58.366Z,28.83
2019-02-18T11:18:24.737Z,28.65
2019-02-18T11:20:51.428Z,28.91
2019-02-18T11:23:17.773Z,28.86
2019-02-18T11:25:44.375Z,28.88
2019-02-18T11:28:10.731Z,29.02
2019-02-18T11:30:39.045Z,28.44
2019-02-18T11:33:05.950Z,29.15
2019-02-18T11:35:32.513Z,28.90
2019-02-18T11:37:58.918Z,29.09
2019-02-18T11:40:25.252Z,28.90
2019-02-18T11:42:51.629Z,28.96
2019-02-18T11:45:18.026Z,28.87
2019-02-18T11:47:44.379Z,28.95
2019-02-18T11:50:10.797Z,29.18
2019-02-18T11:52:37.714Z,29.07
2019-02-18T11:55:06.636Z,28.94
2019-02-18T11:57:33.060Z,28.71
2019-02-18T11:59:59.386Z,28.75
2019-02-18T12:02:25.741Z,28.87
2019-02-18T12:04:52.098Z,28.78
2019-02-18T12:07:18.457Z,28.99
2019-02-18T12:09:44.970Z,29.09
2019-02-18T12:12:11.349Z,28.82
2019-02-18T12:14:37.759Z,28.96
2019-02-18T12:17:04.101Z,28.99
2019-02-18T12:19:30.493Z,29.12
2019-02-18T12:21:56.900Z,29.00
2019-02-18T12:24:25.481Z,28.71
2019-02-18T12:26:53.026Z,29.05
2019-02-18T12:29:26.201Z,29.31
2019-02-18T12:31:45.758Z,29.55
2019-02-18T12:34:12.126Z,29.72
2019-02-18T12:36:38.559Z,29.53
2019-02-18T12:39:04.914Z,29.60
2019-02-18T12:41:31.254Z,29.69
2019-02-18T12:43:57.937Z,28.98
2019-02-18T12:46:24.313Z,29.31
2019-02-18T12:48:50.639Z,29.43
2019-02-18T12:51:17.006Z,30.17
2019-02-18T12:53:43.382Z,29.76
2019-02-18T12:56:09.688Z,30.07
2019-02-18T12:58:36.041Z,29.27
2019-02-18T13:01:02.446Z,28.80
2019-02-18T13:03:28.804Z,29.16
2019-02-18T13:05:55.158Z,29.01
2019-02-18T13:08:21.561Z,29.09
2019-02-18T13:10:48.003Z,28.94
2019-02-18T13:13:14.423Z,30.37
2019-02-18T13:15:40.787Z,30.46
2019-02-18T13:18:07.197Z,29.50
2019-02-18T13:20:34.473Z,29.92
2019-02-18T13:23:00.886Z,29.33
2019-02-18T13:25:27.224Z,29.33
2019-02-18T13:27:53.570Z,29.59
2019-02-18T13:30:19.967Z,28.97
2019-02-18T13:32:46.364Z,29.06
2019-02-18T13:35:12.703Z,28.74
2019-02-18T13:37:39.483Z,28.54
2019-02-18T13:40:05.822Z,28.63
2019-02-18T13:42:32.179Z,28.79
2019-02-18T13:44:58.578Z,28.48
2019-02-18T13:47:26.145Z,29.04
2019-02-18T13:49:52.500Z,29.24
2019-02-18T13:52:18.868Z,28.79
2019-02-18T13:54:45.327Z,28.75
2019-02-18T13:57:12.893Z,29.19
2019-02-18T13:59:39.283Z,28.86
2019-02-18T14:02:05.639Z,28.41
2019-02-18T14:04:32.055Z,28.96
2019-02-18T14:07:01.349Z,28.67
2019-02-18T14:09:25.849Z,28.54
2019-02-18T14:11:52.321Z,28.38
2019-02-18T14:14:18.633Z,28.79
2019-02-18T14:16:45.169Z,28.98
2019-02-18T14:19:11.517Z,28.54
2019-02-18T14:21:37.905Z,28.22
2019-02-18T14:24:04.267Z,28.15
2019-02-18T14:26:30.611Z,28.24
2019-02-18T14:28:57.014Z,28.31
2019-02-18T14:31:23.353Z,28.72
2019-02-18T14:33:49.701Z,28.30
2019-02-18T14:36:16.087Z,28.46
2019-02-18T14:38:42.415Z,29.25
2019-02-18T14:41:08.810Z,28.76
2019-02-18T14:43:35.322Z,27.90
2019-02-18T14:46:01.669Z,28.56
2019-02-18T14:48:28.042Z,27.86
2019-02-18T14:50:56.620Z,28.70
2019-02-18T14:53:20.747Z,27.93
2019-02-18T14:55:47.144Z,28.08
2019-02-18T14:58:13.472Z,27.59
2019-02-18T15:00:39.841Z,28.19
2019-02-18T15:03:06.168Z,28.31
2019-02-18T15:05:32.504Z,27.89
2019-02-18T15:07:58.835Z,28.36
2019-02-18T15:10:25.258Z,28.48
2019-02-18T15:12:51.585Z,28.70
2019-02-18T15:15:17.973Z,28.75
2019-02-18T15:17:44.306Z,28.80
2019-02-18T15:20:11.584Z,28.28
2019-02-18T15:22:37.031Z,27.96
2019-02-18T15:25:03.443Z,27.75
2019-02-18T15:27:29.742Z,28.29
2019-02-18T15:29:56.139Z,27.88
2019-02-18T15:32:22.583Z,28.02
2019-02-18T15:34:49.015Z,28.22
2019-02-18T15:37:15.399Z,27.49
2019-02-18T15:39:41.859Z,27.87
2019-02-18T15:42:08.268Z,27.88
2019-02-18T15:44:34.623Z,28.14
2019-02-18T15:47:01.026Z,28.09
2019-02-18T15:49:27.388Z,28.15
2019-02-18T15:51:53.791Z,27.63
2019-02-18T15:54:20.287Z,28.04
2019-02-18T15:56:46.668Z,27.91
2019-02-18T15:59:13.105Z,27.62
2019-02-18T16:01:39.471Z,27.62
2019-02-18T16:04:08.340Z,27.73
2019-02-18T16:06:34.674Z,28.17
2019-02-18T16:09:01.043Z,27.77
2019-02-18T16:11:27.458Z,27.54
2019-02-18T16:13:53.753Z,27.87
2019-02-18T16:16:20.092Z,27.68
2019-02-18T16:18:46.439Z,27.71
2019-02-18T16:21:12.768Z,27.81
2019-02-18T16:23:39.098Z,27.56
2019-02-18T16:26:05.464Z,27.44
2019-02-18T16:28:31.797Z,27.87
2019-02-18T16:30:58.135Z,27.57
2019-02-18T16:33:24.503Z,27.62
2019-02-18T16:35:50.831Z,27.97
2019-02-18T16:38:17.211Z,27.67
2019-02-18T16:40:43.552Z,27.35
2019-02-18T16:43:09.923Z,27.72
2019-02-18T16:45:36.257Z,27.47
2019-02-18T16:48:02.587Z,27.54
2019-02-18T16:50:28.939Z,27.44
2019-02-18T16:52:55.277Z,27.36
2019-02-18T16:55:21.652Z,27.31
2019-02-18T16:57:47.989Z,27.40
2019-02-18T17:00:14.323Z,27.07
2019-02-18T17:02:40.660Z,27.34
2019-02-18T17:05:06.979Z,27.17
2019-02-18T17:07:33.362Z,27.23
2019-02-18T17:09:59.704Z,27.21
2019-02-18T17:12:26.053Z,27.16
2019-02-18T17:14:52.387Z,27.27
2019-02-18T17:17:18.771Z,27.11
2019-02-18T17:19:45.138Z,26.82
2019-02-18T17:22:11.568Z,27.06
2019-02-18T17:24:37.845Z,27.08
2019-02-18T17:27:04.261Z,27.14
2019-02-18T17:29:30.633Z,27.14
2019-02-18T17:31:57.223Z,27.08
2019-02-18T17:34:23.553Z,26.95
2019-02-18T17:36:49.879Z,26.99
2019-02-18T17:39:16.211Z,27.00
2019-02-18T17:41:42.592Z,27.01
2019-02-18T17:44:08.937Z,26.71
2019-02-18T17:46:35.291Z,26.89
2019-02-18T17:49:01.617Z,26.47
2019-02-18T17:51:27.947Z,26.68
2019-02-18T17:53:54.315Z,26.81
2019-02-18T17:56:20.682Z,26.71
2019-02-18T17:58:47.012Z,26.65
2019-02-18T18:01:13.386Z,26.65
2019-02-18T18:03:39.719Z,26.67
2019-02-18T18:06:06.041Z,26.91
2019-02-18T18:08:32.372Z,26.95
2019-02-18T18:10:58.696Z,27.11
2019-02-18T18:13:26.663Z,27.12
2019-02-18T18:15:51.399Z,27.18
2019-02-18T18:18:17.719Z,27.19
2019-02-18T18:20:44.055Z,27.33
2019-02-18T18:23:10.382Z,27.31
2019-02-18T18:25:36.734Z,27.38
2019-02-18T18:28:03.125Z,27.36
2019-02-18T18:30:29.448Z,27.36
2019-02-18T18:32:55.775Z,27.36
2019-02-18T18:35:22.106Z,27.35
2019-02-18T18:37:48.545Z,27.40
2019-02-18T18:40:14.911Z,27.36
2019-02-18T18:42:41.213Z,27.31
2019-02-18T18:45:07.548Z,27.27
2019-02-18T18:47:33.916Z,27.24
2019-02-18T18:50:00.353Z,27.21
2019-02-18T18:52:26.654Z,27.26
2019-02-18T18:54:52.993Z,27.33
2019-02-18T18:57:19.324Z,27.27
2019-02-18T18:59:45.655Z,27.29
2019-02-18T19:02:12.022Z,27.28
2019-02-18T19:04:38.352Z,27.28
2019-02-18T19:07:04.681Z,27.19
2019-02-18T19:09:31.092Z,27.22
2019-02-18T19:11:57.443Z,27.28
2019-02-18T19:14:23.785Z,27.35
2019-02-18T19:16:50.130Z,27.38
2019-02-18T19:19:16.456Z,27.36
2019-02-18T19:21:42.831Z,27.22
2019-02-18T19:24:09.250Z,27.25
2019-02-18T19:26:35.613Z,27.29
2019-02-18T19:29:01.946Z,27.34
2019-02-18T19:31:28.322Z,27.42
2019-02-18T19:33:54.654Z,27.44
2019-02-18T19:36:20.988Z,27.41
2019-02-18T19:38:47.316Z,27.40
2019-02-18T19:41:13.644Z,27.41
2019-02-18T19:43:39.980Z,27.41
2019-02-18T19:46:06.325Z,27.42
2019-02-18T19:48:32.689Z,27.46
2019-02-18T19:50:59.017Z,27.52
2019-02-18T19:53:25.356Z,27.49
2019-02-18T19:55:51.684Z,27.57
2019-02-18T19:58:18.059Z,27.55
2019-02-18T20:00:44.391Z,27.55
2019-02-18T20:03:10.721Z,27.57
2019-02-18T20:05:37.051Z,27.58
2019-02-18T20:08:03.386Z,27.60
2019-02-18T20:10:29.760Z,27.63
2019-02-18T20:12:56.093Z,27.64
2019-02-18T20:15:22.494Z,27.69
2019-02-18T20:17:48.838Z,27.61
2019-02-18T20:20:15.241Z,27.60
2019-02-18T20:22:41.565Z,27.59
2019-02-18T20:25:07.920Z,27.62
2019-02-18T20:27:34.269Z,27.68
2019-02-18T20:30:00.618Z,27.69
2019-02-18T20:32:26.955Z,27.66
2019-02-18T20:34:53.278Z,27.72
2019-02-18T20:37:19.651Z,27.70
2019-02-18T20:39:45.971Z,27.77
2019-02-18T20:42:12.302Z,27.75
2019-02-18T20:44:38.633Z,27.83
2019-02-18T20:47:04.962Z,27.77
2019-02-18T20:49:31.301Z,27.80
2019-02-18T20:51:57.699Z,27.84
2019-02-18T20:54:24.033Z,27.84
2019-02-18T20:56:50.378Z,27.77
2019-02-18T20:59:16.759Z,27.76
2019-02-18T21:01:43.035Z,27.84
2019-02-18T21:04:09.374Z,27.80
2019-02-18T21:06:35.764Z,27.82
2019-02-18T21:09:02.097Z,27.89
2019-02-18T21:11:28.418Z,27.83
2019-02-18T21:13:54.797Z,27.81
2019-02-18T21:16:21.186Z,27.91
2019-02-18T21:18:47.527Z,27.91
2019-02-18T21:21:13.854Z,28.15
2019-02-18T21:23:40.183Z,28.13
2019-02-18T21:26:06.534Z,28.17
2019-02-18T21:28:32.902Z,28.24
2019-02-18T21:30:59.340Z,28.37
2019-02-18T21:33:25.667Z,28.50
2019-02-18T21:35:52.001Z,28.61
2019-02-18T21:38:18.330Z,28.71
2019-02-18T21:40:44.727Z,28.79
2019-02-18T21:43:11.130Z,28.91
2019-02-18T21:45:38.871Z,28.96
2019-02-18T21:48:03.881Z,29.11
2019-02-18T21:50:30.202Z,29.17
2019-02-18T21:52:56.538Z,29.16
2019-02-18T21:55:22.877Z,29.17
2019-02-18T21:57:49.208Z,29.14
2019-02-18T22:00:15.647Z,29.23
2019-02-18T22:02:41.940Z,29.32
2019-02-18T22:05:08.314Z,29.29
2019-02-18T22:07:34.661Z,29.31
2019-02-18T22:10:00.989Z,29.39
2019-02-18T22:12:27.503Z,29.44
2019-02-18T22:14:53.829Z,29.51
2019-02-18T22:17:20.172Z,29.45
2019-02-18T22:19:46.515Z,29.35
2019-02-18T22:22:12.879Z,29.46
2019-02-18T22:24:39.200Z,29.58
2019-02-18T22:27:05.584Z,29.58
2019-02-18T22:29:31.914Z,29.63
2019-02-18T22:31:58.270Z,29.59
2019-02-18T22:34:24.612Z,29.75
2019-02-18T22:36:50.942Z,29.67
2019-02-18T22:39:17.267Z,29.77
2019-02-18T22:41:43.609Z,29.78
2019-02-18T22:44:09.945Z,29.85
2019-02-18T22:46:36.302Z,29.79
2019-02-18T22:49:02.702Z,29.85
2019-02-18T22:51:29.034Z,29.85
2019-02-18T22:53:55.343Z,29.87
2019-02-18T22:56:21.711Z,30.04
2019-02-18T22:58:48.042Z,30.05
2019-02-18T23:01:14.413Z,30.02
2019-02-18T23:03:40.839Z,30.01
2019-02-18T23:06:07.176Z,30.03
2019-02-18T23:08:33.502Z,30.02
2019-02-18T23:10:59.837Z,30.07
2019-02-18T23:13:26.212Z,30.14
2019-02-18T23:15:52.575Z,30.21
2019-02-18T23:18:18.907Z,30.21
2019-02-18T23:20:45.244Z,30.25
2019-02-18T23:23:11.567Z,30.26
2019-02-18T23:25:37.894Z,30.24
2019-02-18T23:28:04.355Z,30.22
2019-02-18T23:30:30.679Z,30.28
2019-02-18T23:32:57.012Z,30.25
2019-02-18T23:35:23.343Z,30.32
2019-02-18T23:37:49.672Z,30.31
2019-02-18T23:40:16.053Z,30.33
2019-02-18T23:42:42.386Z,30.43
2019-02-18T23:45:08.720Z,30.47
2019-02-18T23:47:35.062Z,30.42
2019-02-18T23:50:01.450Z,30.46
2019-02-18T23:52:27.747Z,30.43
2019-02-18T23:54:54.094Z,30.49
2019-02-18T23:57:20.414Z,30.55
2019-02-18T23:59:46.818Z,30.58
